createdAt,value
2024-01-29T00:01:25.006Z,5.10
2024-01-29T00:03:55.357Z,5.27
2024-01-29T00:06:24.229Z,5.40
2024-01-29T00:08:53.642Z,4.90
2024-01-29T00:11:22.155Z,5.40
2024-01-29T00:13:50.499Z,5.10
2024-01-29T00:16:18.890Z,5.20
2024-01-29T00:18:47.249Z,5.13
2024-01-29T00:21:16.917Z,4.67
2024-01-29T00:23:45.153Z,4.63
2024-01-29T00:26:14.154Z,4.50
2024-01-29T00:28:42.340Z,5.17
2024-01-29T00:31:10.872Z,4.97
2024-01-29T00:33:39.228Z,5.50
2024-01-29T00:36:07.746Z,4.43
2024-01-29T00:38:37.330Z,4.47
2024-01-29T00:41:05.998Z,4.67
2024-01-29T00:43:34.279Z,5.30
2024-01-29T00:46:02.555Z,4.63
2024-01-29T00:48:31.011Z,5.10
2024-01-29T00:50:59.410Z,4.00
2024-01-29T00:53:27.633Z,4.33
2024-01-29T00:55:57.239Z,4.37
2024-01-29T00:58:25.975Z,5.40
2024-01-29T01:00:54.322Z,4.80
2024-01-29T01:03:22.751Z,4.87
2024-01-29T01:05:51.186Z,4.50
2024-01-29T01:08:19.458Z,4.57
2024-01-29T01:10:47.707Z,4.40
2024-01-29T01:13:17.558Z,4.60
2024-01-29T01:15:45.869Z,4.17
2024-01-29T01:18:14.703Z,4.70
2024-01-29T01:20:43.430Z,4.80
2024-01-29T01:23:11.644Z,4.83
2024-01-29T01:25:39.863Z,4.60
2024-01-29T01:28:09.901Z,4.10
2024-01-29T01:30:39.574Z,4.20
2024-01-29T01:33:07.863Z,4.00
2024-01-29T01:35:36.092Z,4.40
2024-01-29T01:38:04.771Z,4.50
2024-01-29T01:40:32.992Z,4.40
2024-01-29T01:43:04.172Z,3.97
2024-01-29T01:45:32.554Z,4.00
2024-01-29T01:48:02.221Z,4.77
2024-01-29T01:50:30.496Z,4.00
2024-01-29T01:52:58.750Z,4.83
2024-01-29T01:55:28.934Z,3.73
2024-01-29T01:57:57.797Z,4.87
2024-01-29T02:00:26.258Z,4.40
2024-01-29T02:02:54.527Z,3.40
2024-01-29T02:05:24.501Z,3.53
2024-01-29T02:07:53.058Z,4.37
2024-01-29T02:10:21.883Z,4.20
2024-01-29T02:12:50.133Z,4.73
2024-01-29T02:15:21.453Z,3.90
2024-01-29T02:17:49.811Z,4.23
2024-01-29T02:20:19.189Z,3.37
2024-01-29T02:22:48.776Z,4.10
2024-01-29T02:25:17.022Z,4.37
2024-01-29T02:27:46.347Z,4.00
2024-01-29T02:30:15.660Z,3.80
2024-01-29T02:32:44.069Z,3.97
2024-01-29T02:35:12.391Z,3.20
2024-01-29T02:37:40.607Z,3.93
2024-01-29T02:40:12.517Z,4.50
2024-01-29T02:42:42.752Z,3.90
2024-01-29T02:45:11.305Z,3.37
2024-01-29T02:47:39.563Z,4.00
2024-01-29T02:50:08.454Z,3.17
2024-01-29T02:52:36.726Z,4.13
2024-01-29T02:55:05.660Z,4.00
2024-01-29T02:57:35.395Z,3.70
2024-01-29T03:00:05.865Z,3.50
2024-01-29T03:02:34.152Z,3.83
2024-01-29T03:05:02.523Z,3.93
2024-01-29T03:07:31.197Z,3.87
2024-01-29T03:09:59.504Z,4.00
2024-01-29T03:12:27.838Z,3.47
2024-01-29T03:14:57.780Z,4.10
2024-01-29T03:17:26.049Z,4.53
2024-01-29T03:19:54.422Z,3.43
2024-01-29T03:22:22.769Z,3.83
2024-01-29T03:24:50.964Z,4.50
2024-01-29T03:27:19.128Z,3.43
2024-01-29T03:29:47.486Z,3.73
2024-01-29T03:32:17.299Z,4.00
2024-01-29T03:34:45.980Z,4.10
2024-01-29T03:37:14.955Z,3.47
2024-01-29T03:39:43.213Z,4.10
2024-01-29T03:42:11.442Z,4.73
2024-01-29T03:44:39.949Z,4.03
2024-01-29T03:47:08.233Z,3.60
2024-01-29T03:49:38.033Z,3.57
2024-01-29T03:52:06.916Z,3.77
2024-01-29T03:54:35.261Z,4.00
2024-01-29T03:57:03.546Z,3.90
2024-01-29T03:59:35.018Z,3.70
2024-01-29T04:02:03.352Z,2.90
2024-01-29T04:04:31.675Z,3.30
2024-01-29T04:07:01.666Z,3.70
2024-01-29T04:09:30.008Z,3.83
2024-01-29T04:11:58.311Z,3.77
2024-01-29T04:14:26.848Z,3.93
2024-01-29T04:16:55.056Z,3.43
2024-01-29T04:19:23.364Z,3.57
2024-01-29T04:21:51.719Z,3.80
2024-01-29T04:24:21.498Z,3.80
2024-01-29T04:26:49.795Z,3.50
2024-01-29T04:29:18.007Z,4.10
2024-01-29T04:31:46.213Z,3.30
2024-01-29T04:34:14.574Z,3.67
2024-01-29T04:36:42.871Z,3.30
2024-01-29T04:39:11.181Z,3.40
2024-01-29T04:41:40.810Z,3.53
2024-01-29T04:44:09.081Z,3.80
2024-01-29T04:46:38.630Z,3.87
2024-01-29T04:49:06.980Z,4.03
2024-01-29T04:51:35.794Z,3.70
2024-01-29T04:54:04.139Z,4.07
2024-01-29T04:56:32.343Z,4.13
2024-01-29T04:59:01.946Z,3.93
2024-01-29T05:01:30.257Z,3.30
2024-01-29T05:03:58.583Z,3.87
2024-01-29T05:06:26.952Z,3.90
2024-01-29T05:08:56.373Z,3.80
2024-01-29T05:11:24.714Z,4.20
2024-01-29T05:13:54.368Z,3.97
2024-01-29T05:16:24.196Z,4.47
2024-01-29T05:18:52.469Z,4.20
2024-01-29T05:21:20.721Z,4.60
2024-01-29T05:23:48.978Z,3.70
2024-01-29T05:26:17.249Z,4.87
2024-01-29T05:28:45.507Z,4.80
2024-01-29T05:31:13.809Z,4.50
2024-01-29T05:33:43.527Z,3.80
2024-01-29T05:36:11.976Z,4.90
2024-01-29T05:38:40.193Z,4.73
2024-01-29T05:41:08.485Z,4.73
2024-01-29T05:43:36.713Z,4.80
2024-01-29T05:46:05.169Z,5.00
2024-01-29T05:48:33.620Z,4.90
2024-01-29T05:51:03.421Z,4.50
2024-01-29T05:53:31.701Z,4.27
2024-01-29T05:55:59.927Z,4.50
2024-01-29T05:58:31.864Z,4.43
2024-01-29T06:01:00.714Z,5.13
2024-01-29T06:03:29.080Z,4.50
2024-01-29T06:05:57.581Z,4.70
2024-01-29T06:08:27.271Z,4.30
2024-01-29T06:10:56.520Z,4.63
2024-01-29T06:13:25.325Z,5.03
2024-01-29T06:15:53.612Z,4.90
2024-01-29T06:18:21.910Z,4.80
2024-01-29T06:20:50.514Z,4.83
2024-01-29T06:23:18.885Z,4.30
2024-01-29T06:25:48.474Z,4.30
2024-01-29T06:28:18.323Z,4.43
2024-01-29T06:30:46.739Z,4.83
2024-01-29T06:33:15.165Z,4.60
2024-01-29T06:35:43.786Z,4.60
2024-01-29T06:38:12.038Z,4.10
2024-01-29T06:40:40.321Z,4.50
2024-01-29T06:43:09.968Z,4.70
2024-01-29T06:45:38.229Z,4.43
2024-01-29T06:48:09.646Z,4.83
2024-01-29T06:50:39.606Z,4.77
2024-01-29T06:53:07.809Z,5.17
2024-01-29T06:55:36.426Z,4.50
2024-01-29T06:58:05.733Z,5.23
2024-01-29T07:00:37.945Z,5.10
2024-01-29T07:03:06.709Z,4.80
2024-01-29T07:05:35.042Z,5.87
2024-01-29T07:08:04.033Z,5.83
2024-01-29T07:10:32.339Z,5.83
2024-01-29T07:13:01.028Z,5.87
2024-01-29T07:15:29.932Z,5.57
2024-01-29T07:17:59.665Z,5.73
2024-01-29T07:20:30.376Z,6.10
2024-01-29T07:22:58.810Z,5.70
2024-01-29T07:25:27.388Z,4.80
2024-01-29T07:27:57.876Z,6.00
2024-01-29T07:30:26.237Z,5.37
2024-01-29T07:32:54.611Z,5.50
2024-01-29T07:35:24.253Z,5.60
2024-01-29T07:37:53.803Z,4.93
2024-01-29T07:40:22.510Z,5.43
2024-01-29T07:42:51.114Z,5.40
2024-01-29T07:45:19.603Z,5.40
2024-01-29T07:47:47.924Z,5.30
2024-01-29T07:50:16.363Z,5.40
2024-01-29T07:52:46.002Z,5.57
2024-01-29T07:55:14.486Z,5.23
2024-01-29T07:57:42.801Z,5.53
2024-01-29T08:00:12.375Z,5.87
2024-01-29T08:02:40.746Z,5.00
2024-01-29T08:05:10.194Z,5.80
2024-01-29T08:07:38.970Z,5.70
2024-01-29T08:10:09.769Z,5.00
2024-01-29T08:12:38.080Z,5.97
2024-01-29T08:15:07.251Z,5.63
2024-01-29T08:17:35.737Z,5.80
2024-01-29T08:20:05.036Z,5.67
2024-01-29T08:22:33.973Z,5.80
2024-01-29T08:25:02.250Z,5.90
2024-01-29T08:27:32.733Z,5.50
2024-01-29T08:30:01.009Z,5.40
2024-01-29T08:32:29.335Z,6.23
2024-01-29T08:34:57.683Z,5.27
2024-01-29T08:37:25.991Z,6.10
2024-01-29T08:39:54.448Z,6.20
2024-01-29T08:42:22.922Z,6.10
2024-01-29T08:44:56.961Z,5.80
2024-01-29T08:47:25.988Z,6.83
2024-01-29T08:49:54.265Z,5.97
2024-01-29T08:52:22.590Z,6.20
2024-01-29T08:54:51.264Z,6.93
2024-01-29T08:57:19.613Z,6.40
2024-01-29T08:59:47.822Z,6.00
2024-01-29T09:02:17.559Z,5.70
2024-01-29T09:04:46.132Z,6.03
2024-01-29T09:07:18.839Z,6.60
2024-01-29T09:09:47.906Z,5.80
2024-01-29T09:12:16.220Z,5.63
2024-01-29T09:14:44.450Z,6.37
2024-01-29T09:17:12.691Z,6.30
2024-01-29T09:19:42.322Z,6.00
2024-01-29T09:22:10.642Z,6.10
2024-01-29T09:24:38.978Z,6.43
2024-01-29T09:27:07.445Z,6.60
2024-01-29T09:29:35.694Z,5.90
2024-01-29T09:32:04.046Z,6.50
2024-01-29T09:34:32.417Z,5.63
2024-01-29T09:37:02.137Z,6.33
2024-01-29T09:39:30.377Z,5.90
2024-01-29T09:42:04.076Z,6.30
2024-01-29T09:44:38.604Z,5.97
2024-01-29T09:47:08.088Z,5.87
2024-01-29T09:49:37.187Z,6.50
2024-01-29T09:52:11.928Z,5.50
2024-01-29T09:54:41.472Z,5.60
2024-01-29T09:57:11.874Z,6.60
2024-01-29T09:59:40.141Z,5.40
2024-01-29T10:02:11.172Z,5.67
2024-01-29T10:04:39.620Z,5.73
2024-01-29T10:07:12.039Z,5.67
2024-01-29T10:09:40.414Z,6.40
2024-01-29T10:12:09.195Z,6.20
2024-01-29T10:14:38.808Z,5.83
2024-01-29T10:17:07.043Z,6.23
2024-01-29T10:19:39.744Z,5.73
2024-01-29T10:22:14.673Z,5.67
2024-01-29T10:24:43.316Z,6.00
2024-01-29T10:27:11.937Z,5.50
2024-01-29T10:29:49.399Z,5.70
2024-01-29T10:32:17.796Z,5.87
2024-01-29T10:34:46.439Z,6.23
2024-01-29T10:37:18.469Z,5.90
2024-01-29T10:39:53.141Z,5.37
2024-01-29T10:42:32.846Z,5.87
2024-01-29T10:45:03.773Z,5.30
2024-01-29T10:47:34.824Z,5.60
2024-01-29T10:50:04.417Z,5.70
2024-01-29T10:52:34.893Z,4.83
2024-01-29T10:55:03.505Z,5.57
2024-01-29T10:57:34.011Z,5.67
2024-01-29T11:00:02.705Z,5.40
2024-01-29T11:02:32.088Z,5.57
2024-01-29T11:05:00.468Z,5.60
2024-01-29T11:07:31.061Z,4.50
2024-01-29T11:10:07.677Z,4.60
2024-01-29T11:12:38.664Z,5.10
2024-01-29T11:15:08.297Z,5.20
2024-01-29T11:17:36.730Z,5.70
2024-01-29T11:20:06.509Z,5.27
2024-01-29T11:22:38.740Z,4.93
2024-01-29T11:25:15.569Z,5.27
2024-01-29T11:27:45.024Z,4.50
2024-01-29T11:30:20.030Z,5.00
2024-01-29T11:32:49.119Z,5.43
2024-01-29T11:35:28.202Z,5.33
2024-01-29T11:38:09.181Z,5.17
2024-01-29T11:40:41.959Z,5.80
2024-01-29T11:43:15.680Z,4.70
2024-01-29T11:45:45.773Z,5.33
2024-01-29T11:48:15.303Z,5.63
2024-01-29T11:50:45.597Z,4.67
2024-01-29T11:53:16.036Z,5.40
2024-01-29T11:55:48.168Z,5.03
2024-01-29T11:58:19.952Z,4.60
2024-01-29T12:00:50.944Z,4.83
2024-01-29T12:03:21.715Z,4.90
2024-01-29T12:05:50.920Z,5.00
2024-01-29T12:08:20.932Z,4.70
2024-01-29T12:10:50.943Z,5.63
2024-01-29T12:13:21.212Z,8.27
2024-01-29T12:15:54.108Z,8.80
2024-01-29T12:18:24.349Z,8.30
2024-01-29T12:20:53.022Z,9.20
2024-01-29T12:23:23.055Z,7.40
2024-01-29T12:25:55.611Z,8.37
2024-01-29T12:28:26.758Z,9.20
2024-01-29T12:30:56.900Z,8.00
2024-01-29T12:33:30.156Z,7.43
2024-01-29T12:36:00.201Z,7.17
2024-01-29T12:38:28.522Z,6.40
2024-01-29T12:40:58.841Z,7.60
2024-01-29T12:43:30.767Z,6.70
2024-01-29T12:46:06.637Z,6.77
2024-01-29T12:48:35.216Z,6.70
2024-01-29T12:51:03.744Z,6.30
2024-01-29T12:53:32.025Z,6.27
2024-01-29T12:56:01.719Z,6.50
2024-01-29T12:58:30.028Z,5.77
2024-01-29T13:00:58.365Z,6.30
2024-01-29T13:03:28.220Z,6.77
2024-01-29T13:05:59.685Z,6.37
2024-01-29T13:08:29.164Z,5.20
2024-01-29T13:10:59.357Z,6.10
2024-01-29T13:13:29.357Z,5.57
2024-01-29T13:15:58.357Z,5.10
2024-01-29T13:18:27.712Z,5.47
2024-01-29T13:20:57.568Z,5.40
2024-01-29T13:23:26.073Z,5.77
2024-01-29T13:25:54.353Z,5.80
2024-01-29T13:28:22.721Z,5.20
2024-01-29T13:30:52.581Z,4.87
2024-01-29T13:33:21.273Z,4.87
2024-01-29T13:35:52.168Z,5.53
2024-01-29T13:38:22.027Z,5.50
2024-01-29T13:40:50.703Z,5.40
2024-01-29T13:43:20.215Z,4.50
2024-01-29T13:45:49.822Z,5.47
2024-01-29T13:48:19.977Z,4.90
2024-01-29T13:50:48.434Z,5.20
2024-01-29T13:53:16.809Z,4.83
2024-01-29T13:55:45.192Z,5.00
2024-01-29T13:58:13.651Z,4.90
2024-01-29T14:00:42.095Z,5.10
2024-01-29T14:03:10.727Z,5.03
2024-01-29T14:05:40.714Z,5.17
2024-01-29T14:08:11.281Z,4.80
2024-01-29T14:10:39.752Z,4.17
2024-01-29T14:13:09.784Z,4.77
2024-01-29T14:15:38.200Z,4.60
2024-01-29T14:18:06.925Z,4.30
2024-01-29T14:20:35.408Z,4.50
2024-01-29T14:23:07.148Z,4.90
2024-01-29T14:25:35.574Z,3.80
2024-01-29T14:28:03.904Z,4.33
2024-01-29T14:30:32.842Z,4.10
2024-01-29T14:33:01.998Z,4.37
2024-01-29T14:35:30.311Z,4.20
2024-01-29T14:37:58.545Z,4.77
2024-01-29T14:40:29.121Z,4.60
2024-01-29T14:42:57.394Z,4.13
2024-01-29T14:45:25.754Z,4.13
2024-01-29T14:47:54.060Z,4.70
2024-01-29T14:50:22.341Z,3.93
2024-01-29T14:52:52.765Z,3.70
2024-01-29T14:55:21.586Z,3.97
2024-01-29T14:57:51.580Z,4.20
2024-01-29T15:00:20.668Z,3.53
2024-01-29T15:02:48.936Z,3.80
2024-01-29T15:05:17.604Z,4.30
2024-01-29T15:07:46.120Z,3.73
2024-01-29T15:10:14.576Z,3.70
2024-01-29T15:12:43.127Z,3.50
2024-01-29T15:15:15.089Z,4.70
2024-01-29T15:17:43.388Z,3.90
2024-01-29T15:20:13.087Z,4.10
2024-01-29T15:22:41.540Z,4.10
2024-01-29T15:25:11.198Z,4.13
2024-01-29T15:27:39.699Z,4.07
2024-01-29T15:30:09.604Z,4.20
2024-01-29T15:32:39.203Z,4.20
2024-01-29T15:35:08.717Z,4.30
2024-01-29T15:37:37.090Z,5.27
2024-01-29T15:40:10.930Z,4.33
2024-01-29T15:42:40.855Z,4.23
2024-01-29T15:45:10.773Z,5.30
2024-01-29T15:47:40.642Z,6.40
2024-01-29T15:50:09.878Z,4.60
2024-01-29T15:52:38.257Z,5.53
2024-01-29T15:55:07.115Z,5.57
2024-01-29T15:57:35.475Z,5.90
2024-01-29T16:00:05.315Z,5.20
2024-01-29T16:02:34.785Z,5.40
2024-01-29T16:05:04.437Z,5.17
2024-01-29T16:07:35.941Z,4.93
2024-01-29T16:10:04.610Z,5.00
2024-01-29T16:12:33.069Z,4.73
2024-01-29T16:15:01.745Z,4.97
2024-01-29T16:17:30.631Z,4.97
2024-01-29T16:19:59.166Z,4.90
2024-01-29T16:22:28.873Z,4.90
2024-01-29T16:24:57.212Z,5.00
2024-01-29T16:27:26.490Z,5.40
2024-01-29T16:29:55.895Z,4.50
2024-01-29T16:32:24.147Z,5.30
2024-01-29T16:34:52.665Z,5.03
2024-01-29T16:37:21.025Z,5.27
2024-01-29T16:39:52.476Z,5.27
2024-01-29T16:42:21.007Z,6.50
2024-01-29T16:44:51.088Z,6.37
2024-01-29T16:47:19.326Z,5.90
2024-01-29T16:49:48.195Z,6.30
2024-01-29T16:52:16.573Z,6.80
2024-01-29T16:54:44.897Z,5.87
2024-01-29T16:57:14.620Z,6.47
2024-01-29T16:59:42.943Z,7.33
2024-01-29T17:02:12.481Z,6.80
2024-01-29T17:04:40.843Z,7.20
2024-01-29T17:07:09.288Z,6.63
2024-01-29T17:09:38.492Z,6.07
2024-01-29T17:12:07.311Z,5.90
2024-01-29T17:14:37.240Z,5.93
2024-01-29T17:17:07.701Z,6.00
2024-01-29T17:19:36.246Z,5.67
2024-01-29T17:22:04.748Z,5.10
2024-01-29T17:24:33.051Z,5.90
2024-01-29T17:27:01.684Z,6.00
2024-01-29T17:29:32.512Z,5.47
2024-01-29T17:32:04.393Z,5.50
2024-01-29T17:34:32.823Z,5.47
2024-01-29T17:37:02.821Z,5.10
2024-01-29T17:39:31.333Z,5.33
2024-01-29T17:42:00.408Z,5.80
2024-01-29T17:44:28.751Z,4.97
2024-01-29T17:46:57.168Z,5.60
2024-01-29T17:49:27.061Z,5.67
2024-01-29T17:51:55.465Z,5.20
2024-01-29T17:54:23.821Z,5.20
2024-01-29T17:56:52.168Z,5.43
2024-01-29T17:59:20.462Z,6.33
2024-01-29T18:01:48.764Z,5.57
2024-01-29T18:04:18.408Z,6.07
2024-01-29T18:06:50.752Z,5.30
2024-01-29T18:09:19.886Z,5.20
2024-01-29T18:11:48.988Z,6.00
2024-01-29T18:14:18.237Z,5.17
2024-01-29T18:16:46.487Z,5.27
2024-01-29T18:19:14.949Z,5.93
2024-01-29T18:21:43.352Z,5.27
2024-01-29T18:24:13.106Z,5.87
2024-01-29T18:26:42.153Z,5.20
2024-01-29T18:29:10.639Z,5.33
2024-01-29T18:31:38.914Z,5.73
2024-01-29T18:34:07.563Z,5.80
2024-01-29T18:36:36.003Z,5.40
2024-01-29T18:39:04.434Z,5.63
2024-01-29T18:41:34.200Z,4.93
2024-01-29T18:44:02.605Z,5.33
2024-01-29T18:46:32.569Z,5.53
2024-01-29T18:49:02.414Z,5.70
2024-01-29T18:51:31.874Z,6.00
2024-01-29T18:54:01.054Z,5.77
2024-01-29T18:56:30.845Z,5.27
2024-01-29T18:59:00.606Z,6.13
2024-01-29T19:01:29.020Z,5.67
2024-01-29T19:04:02.499Z,4.90
2024-01-29T19:06:31.563Z,5.40
2024-01-29T19:09:00.192Z,5.90
2024-01-29T19:11:30.817Z,5.00
2024-01-29T19:14:00.479Z,6.17
2024-01-29T19:16:28.768Z,6.00
2024-01-29T19:18:58.257Z,5.70
2024-01-29T19:21:26.803Z,6.00
2024-01-29T19:23:55.342Z,5.50
2024-01-29T19:26:23.597Z,6.10
2024-01-29T19:28:51.888Z,5.70
2024-01-29T19:31:21.691Z,5.70
2024-01-29T19:33:50.145Z,5.70
2024-01-29T19:36:18.618Z,5.90
2024-01-29T19:38:46.941Z,6.80
2024-01-29T19:41:15.243Z,5.80
2024-01-29T19:43:43.530Z,5.40
2024-01-29T19:46:13.087Z,5.20
2024-01-29T19:48:43.157Z,5.97
2024-01-29T19:51:21.728Z,5.87
2024-01-29T19:53:52.190Z,6.10
2024-01-29T19:56:22.283Z,5.90
2024-01-29T19:58:56.486Z,6.30
2024-01-29T20:01:27.767Z,6.37
2024-01-29T20:03:59.347Z,6.40
2024-01-29T20:06:31.231Z,4.77
2024-01-29T20:09:00.177Z,5.23
2024-01-29T20:11:28.632Z,5.63
2024-01-29T20:13:56.926Z,5.60
2024-01-29T20:16:25.565Z,5.80
2024-01-29T20:18:53.961Z,5.20
2024-01-29T20:21:23.678Z,5.37
2024-01-29T20:23:55.098Z,6.30
2024-01-29T20:26:23.518Z,5.70
2024-01-29T20:28:52.590Z,4.77
2024-01-29T20:31:24.626Z,6.13
2024-01-29T20:33:54.242Z,5.83
2024-01-29T20:36:24.813Z,5.37
2024-01-29T20:38:53.605Z,5.30
2024-01-29T20:41:33.059Z,5.67
2024-01-29T20:44:10.839Z,5.93
2024-01-29T20:46:40.291Z,6.63
2024-01-29T20:49:09.231Z,6.03
2024-01-29T20:51:41.025Z,5.90
2024-01-29T20:54:10.972Z,6.17
2024-01-29T20:56:39.920Z,5.67
2024-01-29T20:59:08.757Z,6.03
2024-01-29T21:01:37.233Z,5.73
2024-01-29T21:04:06.310Z,5.70
2024-01-29T21:06:34.937Z,6.00
2024-01-29T21:09:04.961Z,6.23
2024-01-29T21:11:33.485Z,6.50
2024-01-29T21:14:01.906Z,5.77
2024-01-29T21:16:31.439Z,5.93
2024-01-29T21:19:00.248Z,5.80
2024-01-29T21:21:29.858Z,5.07
2024-01-29T21:23:58.324Z,5.50
2024-01-29T21:26:28.808Z,5.30
2024-01-29T21:28:58.621Z,5.73
2024-01-29T21:31:27.307Z,5.90
2024-01-29T21:33:55.748Z,4.90
2024-01-29T21:36:24.142Z,5.60
2024-01-29T21:38:52.503Z,5.77
2024-01-29T21:41:20.845Z,5.90
2024-01-29T21:43:50.552Z,5.50
2024-01-29T21:46:19.811Z,6.00
2024-01-29T21:48:48.448Z,5.70
2024-01-29T21:51:16.854Z,5.60
2024-01-29T21:53:45.115Z,5.90
2024-01-29T21:56:13.399Z,6.30
2024-01-29T21:58:41.622Z,6.87
2024-01-29T22:01:11.435Z,5.67
2024-01-29T22:03:39.827Z,6.20
2024-01-29T22:06:08.237Z,6.50
2024-01-29T22:08:36.525Z,6.37
2024-01-29T22:11:04.784Z,5.47
2024-01-29T22:13:33.152Z,5.70
2024-01-29T22:16:01.462Z,6.40
2024-01-29T22:18:31.170Z,5.87
2024-01-29T22:20:59.444Z,6.20
2024-01-29T22:23:27.795Z,6.80
2024-01-29T22:25:56.052Z,6.93
2024-01-29T22:28:24.471Z,6.43
2024-01-29T22:30:52.825Z,5.97
2024-01-29T22:33:21.162Z,7.20
2024-01-29T22:35:50.784Z,6.37
2024-01-29T22:38:19.269Z,6.07
2024-01-29T22:40:47.561Z,6.93
2024-01-29T22:43:17.360Z,7.40
2024-01-29T22:45:45.710Z,6.60
2024-01-29T22:48:14.087Z,7.17
2024-01-29T22:50:42.521Z,6.10
2024-01-29T22:53:12.104Z,7.27
2024-01-29T22:55:40.341Z,7.27
2024-01-29T23:01:03.198Z,6.77
2024-01-29T23:03:31.568Z,6.73
2024-01-29T23:05:59.864Z,6.60
2024-01-29T23:08:29.516Z,5.73
2024-01-29T23:10:57.944Z,6.40
2024-01-29T23:13:26.176Z,6.47
2024-01-29T23:15:54.477Z,6.53
2024-01-29T23:18:23.502Z,6.80
2024-01-29T23:20:51.904Z,6.13
2024-01-29T23:23:20.198Z,7.07
2024-01-29T23:25:49.892Z,6.20
2024-01-29T23:28:18.123Z,6.30
2024-01-29T23:30:46.487Z,6.80
2024-01-29T23:33:14.831Z,6.80
2024-01-29T23:35:43.123Z,6.60
2024-01-29T23:38:11.349Z,6.20
2024-01-29T23:40:39.594Z,6.07
2024-01-29T23:43:09.172Z,6.77
2024-01-29T23:45:37.827Z,6.80
2024-01-29T23:48:06.853Z,6.37
2024-01-29T23:50:35.141Z,5.90
2024-01-29T23:53:03.397Z,6.80
2024-01-29T23:55:31.664Z,6.37
2024-01-29T23:57:59.965Z,5.87
